createdAt,value
2023-01-26T00:01:16.547Z,69.57
2023-01-26T00:03:43.684Z,53.73
2023-01-26T00:06:12.787Z,71.87
2023-01-26T00:08:41.339Z,77.07
2023-01-26T00:11:09.651Z,82.47
2023-01-26T00:13:36.590Z,71.00
2023-01-26T00:16:04.032Z,77.20
2023-01-26T00:18:31.513Z,70.47
2023-01-26T00:21:00.153Z,69.63
2023-01-26T00:23:28.629Z,88.10
2023-01-26T00:25:55.500Z,73.63
2023-01-26T00:28:22.375Z,76.70
2023-01-26T00:30:49.043Z,66.30
2023-01-26T00:33:15.795Z,68.33
2023-01-26T00:35:45.313Z,67.67
2023-01-26T00:38:12.538Z,67.70
2023-01-26T00:40:40.174Z,59.43
2023-01-26T00:43:07.441Z,68.33
2023-01-26T00:45:34.931Z,67.87
2023-01-26T00:48:01.648Z,71.03
2023-01-26T00:50:28.253Z,65.20
2023-01-26T00:52:55.005Z,69.87
2023-01-26T00:55:21.640Z,61.57
2023-01-26T00:57:49.514Z,66.80
2023-01-26T01:00:17.766Z,60.50
2023-01-26T01:02:44.612Z,56.20
2023-01-26T01:05:12.225Z,68.97
2023-01-26T01:07:38.831Z,62.17
2023-01-26T01:10:05.637Z,63.77
2023-01-26T01:12:32.251Z,50.90
2023-01-26T01:14:58.876Z,65.07
2023-01-26T01:17:25.781Z,58.50
2023-01-26T01:19:52.385Z,60.73
2023-01-26T01:22:19.052Z,59.80
2023-01-26T01:24:45.631Z,62.93
2023-01-26T01:27:12.310Z,54.00
2023-01-26T01:29:39.140Z,64.43
2023-01-26T01:32:05.919Z,58.63
2023-01-26T01:34:32.575Z,57.30
2023-01-26T01:36:59.159Z,64.43
2023-01-26T01:39:25.794Z,59.27
2023-01-26T01:41:52.369Z,51.87
2023-01-26T01:44:24.063Z,62.53
2023-01-26T01:46:53.734Z,57.50
2023-01-26T01:49:46.774Z,57.53
2023-01-26T01:52:18.112Z,59.07
2023-01-26T01:55:07.502Z,57.60
2023-01-26T01:57:51.747Z,56.70
2023-01-26T02:00:22.163Z,59.23
2023-01-26T02:03:11.853Z,56.17
2023-01-26T02:06:03.379Z,63.37
2023-01-26T02:08:38.442Z,62.23
2023-01-26T02:11:10.299Z,52.90
2023-01-26T02:13:37.541Z,47.20
2023-01-26T02:16:04.565Z,56.90
2023-01-26T02:18:31.331Z,58.30
2023-01-26T02:21:11.904Z,64.57
2023-01-26T02:24:15.663Z,58.60
2023-01-26T02:26:42.603Z,61.50
2023-01-26T02:29:11.432Z,60.17
2023-01-26T02:31:39.351Z,54.80
2023-01-26T02:34:06.185Z,63.60
2023-01-26T02:36:34.503Z,56.77
2023-01-26T02:39:17.980Z,61.10
2023-01-26T02:42:04.589Z,56.13
2023-01-26T02:44:32.283Z,47.73
2023-01-26T02:46:59.195Z,54.33
2023-01-26T02:49:44.287Z,52.73
2023-01-26T02:52:10.906Z,42.43
2023-01-26T02:54:56.116Z,47.33
2023-01-26T02:57:22.779Z,51.20
2023-01-26T02:59:49.597Z,45.40
2023-01-26T03:02:16.356Z,40.77
2023-01-26T03:04:43.934Z,42.93
2023-01-26T03:07:10.698Z,56.23
2023-01-26T03:09:37.442Z,51.43
2023-01-26T03:12:04.674Z,50.20
2023-01-26T03:14:31.313Z,47.83
2023-01-26T03:16:57.949Z,50.47
2023-01-26T03:19:43.481Z,51.20
2023-01-26T03:22:29.749Z,65.10
2023-01-26T03:25:15.090Z,56.03
2023-01-26T03:27:47.001Z,47.03
2023-01-26T03:30:16.801Z,54.23
2023-01-26T03:32:43.822Z,56.20
2023-01-26T03:35:15.148Z,49.63
2023-01-26T03:37:43.606Z,47.23
2023-01-26T03:40:30.955Z,55.67
2023-01-26T03:43:16.321Z,44.10
2023-01-26T03:46:01.650Z,47.10
2023-01-26T03:48:47.092Z,46.37
2023-01-26T03:51:32.494Z,49.27
2023-01-26T03:54:18.057Z,42.23
2023-01-26T03:56:44.727Z,47.90
2023-01-26T03:59:15.032Z,56.37
2023-01-26T04:02:02.982Z,52.23
2023-01-26T04:04:48.127Z,48.93
2023-01-26T04:07:33.632Z,55.73
2023-01-26T04:10:00.283Z,44.93
2023-01-26T04:12:27.056Z,49.53
2023-01-26T04:15:12.368Z,45.60
2023-01-26T04:17:57.854Z,49.43
2023-01-26T04:20:43.132Z,48.10
2023-01-26T04:23:20.342Z,49.00
2023-01-26T04:25:48.271Z,43.40
2023-01-26T04:28:14.885Z,50.70
2023-01-26T04:30:41.604Z,49.83
2023-01-26T04:33:08.216Z,43.80
2023-01-26T04:35:34.825Z,43.53
2023-01-26T04:38:01.417Z,38.43
2023-01-26T04:40:28.008Z,44.67
2023-01-26T04:42:54.612Z,43.83
2023-01-26T04:45:21.246Z,46.60
2023-01-26T04:47:47.883Z,37.80
2023-01-26T04:50:14.810Z,43.07
2023-01-26T04:52:41.480Z,50.03
2023-01-26T04:55:08.499Z,43.63
2023-01-26T04:57:35.109Z,41.57
2023-01-26T05:00:01.750Z,38.90
2023-01-26T05:02:28.351Z,40.27
2023-01-26T05:04:54.949Z,37.30
2023-01-26T05:07:21.520Z,43.70
2023-01-26T05:09:48.310Z,35.60
2023-01-26T05:12:33.438Z,36.20
2023-01-26T05:15:00.097Z,35.73
2023-01-26T05:17:26.824Z,42.07
2023-01-26T05:19:53.394Z,39.90
2023-01-26T05:22:19.989Z,28.40
2023-01-26T05:24:46.587Z,38.80
2023-01-26T05:27:22.505Z,37.40
2023-01-26T05:29:52.367Z,40.37
2023-01-26T05:32:19.473Z,36.00
2023-01-26T05:34:46.255Z,31.43
2023-01-26T05:37:14.765Z,32.83
2023-01-26T05:39:42.218Z,37.23
2023-01-26T05:42:09.042Z,31.40
2023-01-26T05:44:35.629Z,35.77
2023-01-26T05:47:02.260Z,28.93
2023-01-26T05:49:29.321Z,29.50
2023-01-26T05:51:56.048Z,31.10
2023-01-26T05:54:22.777Z,32.40
2023-01-26T05:56:49.354Z,30.80
2023-01-26T05:59:16.255Z,32.83
2023-01-26T06:01:42.879Z,25.20
2023-01-26T06:04:09.616Z,34.70
2023-01-26T06:06:36.273Z,43.27
2023-01-26T06:09:03.011Z,39.10
2023-01-26T06:11:31.206Z,34.00
2023-01-26T06:13:57.771Z,29.93
2023-01-26T06:16:24.399Z,31.27
2023-01-26T06:18:51.031Z,39.40
2023-01-26T06:21:17.684Z,36.60
2023-01-26T06:23:44.735Z,32.73
2023-01-26T06:26:11.367Z,32.70
2023-01-26T06:28:38.059Z,32.73
2023-01-26T06:31:06.433Z,34.50
2023-01-26T06:33:35.643Z,38.80
2023-01-26T06:36:07.845Z,32.27
2023-01-26T06:38:34.439Z,33.37
2023-01-26T06:41:04.871Z,28.80
2023-01-26T06:43:32.420Z,31.07
2023-01-26T06:45:59.308Z,29.83
2023-01-26T06:48:27.291Z,27.60
2023-01-26T06:50:57.163Z,24.83
2023-01-26T06:53:34.380Z,28.67
2023-01-26T06:56:01.272Z,32.70
2023-01-26T06:58:27.950Z,30.40
2023-01-26T07:00:55.625Z,29.13
2023-01-26T07:03:22.261Z,32.03
2023-01-26T07:05:48.803Z,27.30
2023-01-26T07:08:15.420Z,24.10
2023-01-26T07:10:42.005Z,26.80
2023-01-26T07:13:08.702Z,30.53
2023-01-26T07:15:35.485Z,29.27
2023-01-26T07:18:02.155Z,26.53
2023-01-26T07:20:28.805Z,28.23
2023-01-26T07:22:55.450Z,32.90
2023-01-26T07:25:22.048Z,26.93
2023-01-26T07:27:48.630Z,30.90
2023-01-26T07:30:15.824Z,32.83
2023-01-26T07:32:42.463Z,26.20
2023-01-26T07:35:09.376Z,26.87
2023-01-26T07:37:35.995Z,32.67
2023-01-26T07:40:03.642Z,30.53
2023-01-26T07:42:31.062Z,35.87
2023-01-26T07:44:57.808Z,28.53
2023-01-26T07:47:24.628Z,28.20
2023-01-26T07:49:51.545Z,27.30
2023-01-26T07:52:18.171Z,26.83
2023-01-26T07:54:44.928Z,26.00
2023-01-26T07:57:12.746Z,28.57
2023-01-26T07:59:39.312Z,32.37
2023-01-26T08:02:06.299Z,31.57
2023-01-26T08:04:32.929Z,33.50
2023-01-26T08:06:59.621Z,22.30
2023-01-26T08:09:26.535Z,23.60
2023-01-26T08:11:53.188Z,28.30
2023-01-26T08:14:19.810Z,29.20
2023-01-26T08:16:46.591Z,26.63
2023-01-26T08:19:13.326Z,22.27
2023-01-26T08:21:39.960Z,31.10
2023-01-26T08:24:06.889Z,25.67
2023-01-26T08:26:33.529Z,35.13
2023-01-26T08:29:00.299Z,21.30
2023-01-26T08:31:28.164Z,31.10
2023-01-26T08:33:55.726Z,31.93
2023-01-26T08:36:23.300Z,26.97
2023-01-26T08:38:50.986Z,25.17
2023-01-26T08:41:18.668Z,26.43
2023-01-26T08:43:45.398Z,27.00
2023-01-26T08:46:12.167Z,25.47
2023-01-26T08:48:39.143Z,24.17
2023-01-26T08:51:07.210Z,25.27
2023-01-26T08:53:36.037Z,22.30
2023-01-26T08:56:05.135Z,26.07
2023-01-26T08:58:33.649Z,26.27
2023-01-26T09:01:04.576Z,22.37
2023-01-26T09:03:31.285Z,21.90
2023-01-26T09:06:00.656Z,17.67
2023-01-26T09:08:27.999Z,26.20
2023-01-26T09:10:54.608Z,23.60
2023-01-26T09:13:21.212Z,17.17
2023-01-26T09:15:47.869Z,17.90
2023-01-26T09:18:14.519Z,19.53
2023-01-26T09:20:41.175Z,19.30
2023-01-26T09:23:08.447Z,15.97
2023-01-26T09:25:39.347Z,16.07
2023-01-26T09:28:06.494Z,15.37
2023-01-26T09:30:33.533Z,17.37
2023-01-26T09:33:01.916Z,13.87
2023-01-26T09:35:29.155Z,14.17
2023-01-26T09:37:56.212Z,16.20
2023-01-26T09:40:44.089Z,15.53
2023-01-26T09:43:36.400Z,13.40
2023-01-26T09:46:15.011Z,12.27
2023-01-26T09:48:59.709Z,12.80
2023-01-26T09:51:37.368Z,18.30
2023-01-26T09:54:06.747Z,18.43
2023-01-26T09:56:33.980Z,17.97
2023-01-26T09:59:27.034Z,17.13
2023-01-26T10:01:56.728Z,16.70
2023-01-26T10:04:32.646Z,16.87
2023-01-26T10:07:01.764Z,18.73
2023-01-26T10:09:35.129Z,30.10
2023-01-26T10:12:07.546Z,20.57
2023-01-26T10:14:46.167Z,17.83
2023-01-26T10:17:39.843Z,30.13
2023-01-26T10:20:43.610Z,19.30
2023-01-26T10:23:17.489Z,22.37
2023-01-26T10:25:48.193Z,24.23
2023-01-26T10:28:16.064Z,26.73
2023-01-26T10:30:44.922Z,26.93
2023-01-26T10:33:27.766Z,28.77
2023-01-26T10:35:54.720Z,24.30
2023-01-26T10:38:33.043Z,26.40
2023-01-26T10:41:05.746Z,24.03
2023-01-26T10:43:36.892Z,28.77
2023-01-26T10:46:04.683Z,28.43
2023-01-26T10:48:31.695Z,24.90
2023-01-26T10:51:16.475Z,32.60
2023-01-26T10:53:43.098Z,26.87
2023-01-26T10:56:14.823Z,31.27
2023-01-26T10:58:55.095Z,25.17
2023-01-26T11:01:23.179Z,22.90
2023-01-26T11:04:06.994Z,34.73
2023-01-26T11:06:34.410Z,34.87
2023-01-26T11:09:27.586Z,37.40
2023-01-26T11:11:56.631Z,27.33
2023-01-26T11:14:23.731Z,26.20
2023-01-26T11:17:22.672Z,35.50
2023-01-26T11:20:07.111Z,28.63
2023-01-26T11:22:50.307Z,27.07
2023-01-26T11:25:27.893Z,29.27
2023-01-26T11:28:22.370Z,24.57
2023-01-26T11:31:04.026Z,33.47
2023-01-26T11:33:43.922Z,24.60
2023-01-26T11:36:17.079Z,29.70
2023-01-26T11:39:02.230Z,29.17
2023-01-26T11:41:34.440Z,34.40
2023-01-26T11:44:25.334Z,40.30
2023-01-26T11:47:10.972Z,32.03
2023-01-26T11:49:46.433Z,27.67
2023-01-26T11:52:35.797Z,36.57
2023-01-26T11:55:28.599Z,36.13
2023-01-26T11:58:15.145Z,31.63
2023-01-26T12:00:47.435Z,35.67
2023-01-26T12:03:33.017Z,38.73
2023-01-26T12:06:05.388Z,21.23
2023-01-26T12:08:42.074Z,40.40
2023-01-26T12:11:25.287Z,22.50
2023-01-26T12:14:01.020Z,38.70
2023-01-26T12:16:39.976Z,29.80
2023-01-26T12:19:45.512Z,28.40
2023-01-26T12:22:32.121Z,38.13
2023-01-26T12:25:28.083Z,39.40
2023-01-26T12:28:01.237Z,31.23
2023-01-26T12:30:50.479Z,41.93
2023-01-26T12:33:17.239Z,35.10
2023-01-26T12:36:05.394Z,36.40
2023-01-26T12:38:50.180Z,33.47
2023-01-26T12:41:44.050Z,36.73
2023-01-26T12:44:36.555Z,52.87
2023-01-26T12:47:09.880Z,48.87
2023-01-26T12:49:47.206Z,37.93
2023-01-26T12:52:21.685Z,35.47
2023-01-26T12:55:04.636Z,31.30
2023-01-26T12:57:44.024Z,27.43
2023-01-26T13:00:20.266Z,32.53
2023-01-26T13:02:51.766Z,32.97
2023-01-26T13:05:34.082Z,34.03
2023-01-26T13:08:36.727Z,22.17
2023-01-26T13:11:09.133Z,20.00
2023-01-26T13:13:56.899Z,25.77
2023-01-26T13:16:23.647Z,16.90
2023-01-26T13:18:55.281Z,25.30
2023-01-26T13:21:40.068Z,21.07
2023-01-26T13:24:18.798Z,18.27
2023-01-26T13:26:50.896Z,18.83
2023-01-26T13:29:31.877Z,20.03
2023-01-26T13:32:14.036Z,16.20
2023-01-26T13:34:47.474Z,18.40
2023-01-26T13:37:23.734Z,16.70
2023-01-26T13:39:56.974Z,19.37
2023-01-26T13:42:35.174Z,26.10
2023-01-26T13:45:30.757Z,19.10
2023-01-26T13:48:00.456Z,15.63
2023-01-26T13:50:31.303Z,15.03
2023-01-26T13:52:58.428Z,16.20
2023-01-26T13:55:29.535Z,19.27
2023-01-26T13:58:25.446Z,16.70
2023-01-26T14:01:02.268Z,19.93
2023-01-26T14:03:30.992Z,19.30
2023-01-26T14:06:01.120Z,14.40
2023-01-26T14:08:28.990Z,25.20
2023-01-26T14:10:55.875Z,16.80
2023-01-26T14:13:38.824Z,20.73
2023-01-26T14:16:07.221Z,14.70
2023-01-26T14:18:33.999Z,17.03
2023-01-26T14:21:01.928Z,18.63
2023-01-26T14:23:32.801Z,16.03
2023-01-26T14:26:17.183Z,18.07
2023-01-26T14:28:44.221Z,18.73
2023-01-26T14:31:18.075Z,23.17
2023-01-26T14:33:44.977Z,18.67
2023-01-26T14:36:17.152Z,17.30
2023-01-26T14:38:46.187Z,18.57
2023-01-26T14:41:29.165Z,18.50
2023-01-26T14:43:59.907Z,25.97
2023-01-26T14:46:44.398Z,18.27
2023-01-26T14:49:20.787Z,20.90
2023-01-26T14:51:53.539Z,25.63
2023-01-26T14:54:30.699Z,19.67
2023-01-26T14:56:58.750Z,10.70
2023-01-26T14:59:43.823Z,15.77
2023-01-26T15:02:25.533Z,14.90
2023-01-26T15:04:52.180Z,19.77
2023-01-26T15:07:38.779Z,17.00
2023-01-26T15:10:28.361Z,16.07
2023-01-26T15:13:11.236Z,18.60
2023-01-26T15:15:43.815Z,14.33
2023-01-26T15:18:13.415Z,19.17
2023-01-26T15:20:41.456Z,19.00
2023-01-26T15:23:32.036Z,17.17
2023-01-26T15:26:12.539Z,24.70
2023-01-26T15:28:39.277Z,13.70
2023-01-26T15:31:06.950Z,18.43
2023-01-26T15:33:53.397Z,15.40
2023-01-26T15:36:28.659Z,19.83
2023-01-26T15:39:03.497Z,20.03
2023-01-26T15:41:30.745Z,17.77
2023-01-26T15:43:57.638Z,20.60
2023-01-26T15:46:24.302Z,18.10
2023-01-26T15:48:50.952Z,14.37
2023-01-26T15:51:17.637Z,31.47
2023-01-26T15:53:44.283Z,22.67
2023-01-26T15:56:15.571Z,21.60
2023-01-26T15:58:43.184Z,15.37
2023-01-26T16:01:21.380Z,22.20
2023-01-26T16:03:48.412Z,16.67
2023-01-26T16:06:23.943Z,20.40
2023-01-26T16:08:50.806Z,17.33
2023-01-26T16:11:18.153Z,20.23
2023-01-26T16:13:54.030Z,21.20
2023-01-26T16:16:29.546Z,23.73
2023-01-26T16:18:57.365Z,30.33
2023-01-26T16:21:29.556Z,20.67
2023-01-26T16:23:56.269Z,18.73
2023-01-26T16:26:22.954Z,24.40
2023-01-26T16:28:49.639Z,26.60
2023-01-26T16:31:25.861Z,30.07
2023-01-26T16:33:52.794Z,19.20
2023-01-26T16:36:20.606Z,27.53
2023-01-26T16:38:48.007Z,23.00
2023-01-26T16:41:19.324Z,27.30
2023-01-26T16:43:45.938Z,30.83
2023-01-26T16:46:12.625Z,36.83
2023-01-26T16:48:40.470Z,31.13
2023-01-26T16:51:20.083Z,29.70
2023-01-26T16:53:47.495Z,21.80
2023-01-26T16:56:15.846Z,28.40
2023-01-26T16:58:42.673Z,30.90
2023-01-26T17:01:30.127Z,14.73
2023-01-26T17:03:56.729Z,32.73
2023-01-26T17:06:23.570Z,21.03
2023-01-26T17:08:50.251Z,22.63
2023-01-26T17:11:19.383Z,24.27
2023-01-26T17:13:46.755Z,34.03
2023-01-26T17:16:16.437Z,27.53
2023-01-26T17:18:45.388Z,24.43
2023-01-26T17:21:13.267Z,33.10
2023-01-26T17:23:44.168Z,23.50
2023-01-26T17:26:15.136Z,20.23
2023-01-26T17:28:41.867Z,24.20
2023-01-26T17:31:17.376Z,20.80
2023-01-26T17:33:45.509Z,21.67
2023-01-26T17:36:12.257Z,20.27
2023-01-26T17:38:39.302Z,18.17
2023-01-26T17:41:06.226Z,25.73
2023-01-26T17:43:33.465Z,27.93
2023-01-26T17:46:04.166Z,16.73
2023-01-26T17:48:30.954Z,32.10
2023-01-26T17:50:57.557Z,20.63
2023-01-26T17:53:24.406Z,31.40
2023-01-26T17:55:52.154Z,25.07
2023-01-26T17:58:18.785Z,19.77
2023-01-26T18:00:45.618Z,19.13
2023-01-26T18:03:12.335Z,15.77
2023-01-26T18:05:38.932Z,17.30
2023-01-26T18:08:05.753Z,25.63
2023-01-26T18:10:32.461Z,21.83
2023-01-26T18:12:59.129Z,31.47
2023-01-26T18:15:25.790Z,23.67
2023-01-26T18:17:52.457Z,20.03
2023-01-26T18:20:19.078Z,24.73
2023-01-26T18:22:46.208Z,27.43
2023-01-26T18:25:13.148Z,17.27
2023-01-26T18:27:39.925Z,21.60
2023-01-26T18:30:07.316Z,17.30
2023-01-26T18:32:34.023Z,21.70
2023-01-26T18:35:00.597Z,18.40
2023-01-26T18:37:28.236Z,29.57
2023-01-26T18:39:54.817Z,26.00
2023-01-26T18:42:21.420Z,25.13
2023-01-26T18:44:48.359Z,18.33
2023-01-26T18:47:14.952Z,12.97
2023-01-26T18:49:41.554Z,20.53
2023-01-26T18:52:08.246Z,26.20
2023-01-26T18:54:34.956Z,21.10
2023-01-26T18:57:01.538Z,20.47
2023-01-26T18:59:28.247Z,20.70
2023-01-26T19:01:55.421Z,15.97
2023-01-26T19:04:22.442Z,19.87
2023-01-26T19:06:49.083Z,17.90
2023-01-26T19:09:15.808Z,19.53
2023-01-26T19:11:42.485Z,37.17
2023-01-26T19:14:09.347Z,20.73
2023-01-26T19:16:36.550Z,22.43
2023-01-26T19:19:03.507Z,26.13
2023-01-26T19:21:31.844Z,21.40
2023-01-26T19:24:02.459Z,21.30
2023-01-26T19:26:30.583Z,28.67
2023-01-26T19:28:57.696Z,20.13
2023-01-26T19:31:26.372Z,25.93
2023-01-26T19:33:58.284Z,23.07
2023-01-26T19:36:26.543Z,21.70
2023-01-26T19:38:53.195Z,19.90
2023-01-26T19:41:21.059Z,28.63
2023-01-26T19:43:50.298Z,29.20
2023-01-26T19:46:18.066Z,25.20
2023-01-26T19:48:45.768Z,30.47
2023-01-26T19:51:14.928Z,30.80
2023-01-26T19:53:44.916Z,16.60
2023-01-26T19:56:14.290Z,11.17
2023-01-26T19:58:40.920Z,11.73
2023-01-26T20:01:13.029Z,19.53
2023-01-26T20:03:40.365Z,14.07
2023-01-26T20:06:14.921Z,22.10
2023-01-26T20:08:41.638Z,18.57
2023-01-26T20:11:09.880Z,12.23
2023-01-26T20:13:38.373Z,14.27
2023-01-26T20:16:08.827Z,21.00
2023-01-26T20:18:36.719Z,13.97
2023-01-26T20:21:06.589Z,12.27
2023-01-26T20:23:35.244Z,14.77
2023-01-26T20:26:04.102Z,12.30
2023-01-26T20:28:30.991Z,14.07
2023-01-26T20:31:15.605Z,13.97
2023-01-26T20:33:43.882Z,15.00
2023-01-26T20:36:16.716Z,19.10
2023-01-26T20:38:43.737Z,16.23
2023-01-26T20:41:13.228Z,16.87
2023-01-26T20:43:49.411Z,21.10
2023-01-26T20:46:20.056Z,26.47
2023-01-26T20:48:46.883Z,24.20
2023-01-26T20:51:16.246Z,18.13
2023-01-26T20:53:43.590Z,20.67
2023-01-26T20:56:11.797Z,18.03
2023-01-26T20:58:40.070Z,18.83
2023-01-26T21:01:09.643Z,15.93
2023-01-26T21:03:37.357Z,21.40
2023-01-26T21:06:05.220Z,20.33
2023-01-26T21:08:32.297Z,18.73
2023-01-26T21:11:00.658Z,14.97
2023-01-26T21:13:28.008Z,23.67
2023-01-26T21:15:55.482Z,16.20
2023-01-26T21:18:22.267Z,17.07
2023-01-26T21:20:57.215Z,13.23
2023-01-26T21:23:24.523Z,18.57
2023-01-26T21:25:58.537Z,14.10
2023-01-26T21:28:26.209Z,12.53
2023-01-26T21:31:04.952Z,10.70
2023-01-26T21:33:32.826Z,9.90
2023-01-26T21:36:01.417Z,13.33
2023-01-26T21:38:31.320Z,13.80
2023-01-26T21:41:02.571Z,11.37
2023-01-26T21:43:30.117Z,19.63
2023-01-26T21:45:58.152Z,15.23
2023-01-26T21:48:31.532Z,21.03
2023-01-26T21:51:17.727Z,21.97
2023-01-26T21:53:44.717Z,16.80
2023-01-26T21:56:14.655Z,17.03
2023-01-26T21:58:59.904Z,7.43
2023-01-26T22:01:27.340Z,11.57
2023-01-26T22:03:58.778Z,12.83
2023-01-26T22:06:26.267Z,11.83
2023-01-26T22:08:54.238Z,9.80
2023-01-26T22:11:21.510Z,15.00
2023-01-26T22:13:48.268Z,9.47
2023-01-26T22:16:15.631Z,11.43
2023-01-26T22:18:42.550Z,10.30
2023-01-26T22:21:09.332Z,9.10
2023-01-26T22:23:37.696Z,7.20
2023-01-26T22:26:09.959Z,8.40
2023-01-26T22:28:36.714Z,8.40
2023-01-26T22:31:06.915Z,6.50
2023-01-26T22:33:34.947Z,7.50
2023-01-26T22:36:06.014Z,9.73
2023-01-26T22:38:34.003Z,10.97
2023-01-26T22:41:01.845Z,6.50
2023-01-26T22:43:28.730Z,6.60
2023-01-26T22:45:55.456Z,6.60
2023-01-26T22:48:22.157Z,5.33
2023-01-26T22:50:48.778Z,7.77
2023-01-26T22:53:15.529Z,3.63
2023-01-26T22:55:43.169Z,3.90
2023-01-26T22:58:11.107Z,3.70
2023-01-26T23:00:38.367Z,2.87
2023-01-26T23:03:05.659Z,4.63
2023-01-26T23:05:33.846Z,5.90
2023-01-26T23:08:01.115Z,1.73
2023-01-26T23:10:28.151Z,2.90
2023-01-26T23:12:54.905Z,2.60
2023-01-26T23:15:22.148Z,2.63
2023-01-26T23:17:50.477Z,4.77
2023-01-26T23:20:21.761Z,4.20
2023-01-26T23:22:48.453Z,3.40
2023-01-26T23:25:34.072Z,1.60
2023-01-26T23:28:04.207Z,1.77
2023-01-26T23:30:30.899Z,2.60
2023-01-26T23:32:57.604Z,2.07
2023-01-26T23:35:26.456Z,4.40
2023-01-26T23:37:53.318Z,4.10
2023-01-26T23:40:20.111Z,1.70
2023-01-26T23:43:03.514Z,1.70
2023-01-26T23:45:34.020Z,3.07
2023-01-26T23:48:00.678Z,1.50
2023-01-26T23:50:27.918Z,5.37
2023-01-26T23:52:54.534Z,1.73
2023-01-26T23:55:21.525Z,1.13
2023-01-26T23:57:48.215Z,4.77
